createdAt,value
2023-02-12T00:01:29.054Z,3.27
2023-02-12T00:03:56.714Z,2.77
2023-02-12T00:06:24.395Z,2.60
2023-02-12T00:08:52.729Z,2.73
2023-02-12T00:11:21.696Z,2.50
2023-02-12T00:13:49.026Z,2.63
2023-02-12T00:16:17.599Z,3.63
2023-02-12T00:18:45.486Z,2.43
2023-02-12T00:21:14.119Z,2.87
2023-02-12T00:23:41.750Z,2.47
2023-02-12T00:26:10.063Z,3.30
2023-02-12T00:28:37.715Z,1.90
2023-02-12T00:31:06.100Z,2.33
2023-02-12T00:33:33.442Z,1.87
2023-02-12T00:36:00.810Z,1.80
2023-02-12T00:38:28.112Z,2.57
2023-02-12T00:40:55.629Z,2.40
2023-02-12T00:43:22.924Z,2.20
2023-02-12T00:45:50.349Z,2.50
2023-02-12T00:48:17.704Z,2.03
2023-02-12T00:50:45.632Z,2.33
2023-02-12T00:53:13.838Z,2.43
2023-02-12T00:55:41.623Z,1.90
2023-02-12T00:58:09.097Z,2.03
2023-02-12T01:00:36.537Z,2.17
2023-02-12T01:03:04.325Z,1.70
2023-02-12T01:05:31.914Z,2.10
2023-02-12T01:07:59.298Z,1.87
2023-02-12T01:10:26.692Z,2.20
2023-02-12T01:12:54.274Z,1.50
2023-02-12T01:15:21.623Z,1.80
2023-02-12T01:17:48.984Z,1.97
2023-02-12T01:20:18.086Z,2.10
2023-02-12T01:22:45.552Z,1.97
2023-02-12T01:25:13.345Z,1.77
2023-02-12T01:27:41.095Z,1.77
2023-02-12T01:30:09.838Z,2.20
2023-02-12T01:32:37.224Z,1.90
2023-02-12T01:35:05.265Z,2.10
2023-02-12T01:37:34.885Z,2.80
2023-02-12T01:40:02.254Z,2.57
2023-02-12T01:42:29.653Z,2.57
2023-02-12T01:45:16.812Z,2.87
2023-02-12T01:47:45.468Z,5.57
2023-02-12T01:50:15.061Z,4.87
2023-02-12T01:52:44.207Z,4.90
2023-02-12T01:55:12.073Z,4.63
2023-02-12T01:57:40.965Z,4.90
2023-02-12T02:00:10.480Z,5.00
2023-02-12T02:02:38.375Z,4.90
2023-02-12T02:05:06.470Z,4.97
2023-02-12T02:07:33.916Z,5.73
2023-02-12T02:10:02.008Z,5.30
2023-02-12T02:12:50.554Z,5.63
2023-02-12T02:15:18.022Z,4.37
2023-02-12T02:18:05.254Z,5.13
2023-02-12T02:20:48.140Z,5.60
2023-02-12T02:23:35.358Z,6.23
2023-02-12T02:26:22.578Z,6.73
2023-02-12T02:29:09.954Z,6.73
2023-02-12T02:31:57.206Z,6.10
2023-02-12T02:34:30.174Z,5.30
2023-02-12T02:37:17.339Z,6.00
2023-02-12T02:40:04.528Z,5.93
2023-02-12T02:42:51.685Z,6.23
2023-02-12T02:45:22.666Z,5.40
2023-02-12T02:47:54.615Z,5.53
2023-02-12T02:50:23.984Z,6.93
2023-02-12T02:52:52.989Z,6.72
2023-02-12T02:55:21.338Z,6.82
2023-02-12T02:57:52.168Z,7.73
2023-02-12T03:00:23.115Z,7.73
2023-02-12T03:02:53.508Z,6.97
2023-02-12T03:05:25.152Z,7.90
2023-02-12T03:07:55.240Z,9.35
2023-02-12T03:10:32.553Z,9.32
2023-02-12T03:13:07.379Z,11.60
2023-02-12T03:15:38.757Z,8.00
2023-02-12T03:18:08.618Z,7.82
2023-02-12T03:20:40.933Z,10.80
2023-02-12T03:23:11.194Z,7.43
2023-02-12T03:25:41.831Z,6.28
2023-02-12T03:28:29.095Z,6.13
2023-02-12T03:31:16.325Z,5.50
2023-02-12T03:34:03.580Z,5.60
2023-02-12T03:36:38.941Z,7.75
2023-02-12T03:41:41.121Z,9.20
2023-02-12T03:44:28.321Z,9.80
2023-02-12T03:47:15.451Z,7.18
2023-02-12T03:49:49.889Z,7.03
2023-02-12T03:52:17.230Z,7.43
2023-02-12T03:54:44.735Z,7.35
2023-02-12T03:57:14.625Z,7.22
2023-02-12T03:59:42.114Z,7.82
2023-02-12T04:02:10.113Z,7.35
2023-02-12T04:04:37.695Z,9.23
2023-02-12T04:07:05.240Z,7.57
2023-02-12T04:09:32.991Z,8.52
2023-02-12T04:12:07.701Z,8.55
2023-02-12T04:14:54.894Z,9.07
2023-02-12T04:17:30.997Z,8.20
2023-02-12T04:20:18.630Z,8.02
2023-02-12T04:23:05.808Z,8.93
2023-02-12T04:25:53.276Z,8.50
2023-02-12T04:28:40.857Z,8.15
2023-02-12T04:31:12.855Z,8.18
2023-02-12T04:33:43.385Z,8.25
2023-02-12T04:36:14.571Z,8.52
2023-02-12T04:38:44.788Z,8.77
2023-02-12T04:41:12.251Z,8.15
2023-02-12T04:43:39.656Z,9.68
2023-02-12T04:46:08.312Z,8.90
2023-02-12T04:48:36.026Z,8.32
2023-02-12T04:51:03.406Z,7.50
2023-02-12T04:53:30.773Z,7.90
2023-02-12T04:55:58.372Z,8.30
2023-02-12T04:58:25.821Z,7.93
2023-02-12T05:00:53.178Z,8.73
2023-02-12T05:03:20.513Z,14.68
2023-02-12T05:05:47.857Z,12.25
2023-02-12T05:08:15.184Z,14.75
2023-02-12T05:10:42.530Z,14.00
2023-02-12T05:13:09.872Z,11.40
2023-02-12T05:15:39.353Z,11.48
2023-02-12T05:18:06.906Z,11.63
2023-02-12T05:20:34.258Z,11.20
2023-02-12T05:23:01.611Z,10.63
2023-02-12T05:25:28.970Z,10.27
2023-02-12T05:27:57.142Z,9.38
2023-02-12T05:30:24.984Z,10.68
2023-02-12T05:32:52.319Z,11.52
2023-02-12T05:35:19.689Z,11.13
2023-02-12T05:37:47.033Z,9.75
2023-02-12T05:40:14.792Z,8.93
2023-02-12T05:42:42.147Z,10.98
2023-02-12T05:45:09.645Z,9.48
2023-02-12T05:47:37.018Z,8.75
2023-02-12T05:50:04.437Z,9.88
2023-02-12T05:52:31.847Z,9.70
2023-02-12T05:54:59.230Z,9.05
2023-02-12T05:57:26.601Z,8.77
2023-02-12T05:59:54.081Z,11.38
2023-02-12T06:02:21.478Z,8.95
2023-02-12T06:04:48.876Z,11.30
2023-02-12T06:07:16.204Z,10.85
2023-02-12T06:09:43.611Z,9.68
2023-02-12T06:12:10.966Z,10.10
2023-02-12T06:14:38.346Z,10.13
2023-02-12T06:17:05.754Z,9.00
2023-02-12T06:19:33.162Z,9.13
2023-02-12T06:22:02.659Z,10.13
2023-02-12T06:24:30.009Z,8.73
2023-02-12T06:26:57.365Z,7.82
2023-02-12T06:29:24.805Z,8.45
2023-02-12T06:31:52.264Z,9.30
2023-02-12T06:34:19.673Z,8.93
2023-02-12T06:36:47.551Z,7.90
2023-02-12T06:39:15.939Z,7.78
2023-02-12T06:41:44.127Z,7.13
2023-02-12T06:44:12.789Z,7.80
2023-02-12T06:46:40.251Z,7.88
2023-02-12T06:49:07.614Z,7.95
2023-02-12T06:51:36.464Z,10.93
2023-02-12T06:54:03.847Z,11.98
2023-02-12T06:56:31.191Z,14.18
2023-02-12T06:59:01.300Z,12.60
2023-02-12T07:01:29.783Z,12.30
2023-02-12T07:03:58.748Z,12.40
2023-02-12T07:06:26.859Z,13.63
2023-02-12T07:08:54.845Z,11.75
2023-02-12T07:11:26.297Z,12.10
2023-02-12T07:13:53.760Z,11.85
2023-02-12T07:16:21.554Z,10.93
2023-02-12T07:18:49.358Z,10.10
2023-02-12T07:21:17.331Z,11.13
2023-02-12T07:23:53.050Z,10.73
2023-02-12T07:26:21.429Z,10.88
2023-02-12T07:28:49.172Z,8.20
2023-02-12T07:31:19.782Z,7.20
2023-02-12T07:33:47.379Z,7.10
2023-02-12T07:36:16.019Z,7.28
2023-02-12T07:38:46.125Z,7.25
2023-02-12T07:41:18.186Z,6.80
2023-02-12T07:43:46.569Z,5.85
2023-02-12T07:46:17.540Z,6.35
2023-02-12T07:48:45.344Z,7.47
2023-02-12T07:51:14.037Z,6.88
2023-02-12T07:53:41.626Z,7.28
2023-02-12T07:56:10.347Z,7.40
2023-02-12T07:58:37.927Z,7.25
2023-02-12T08:01:14.510Z,7.85
2023-02-12T08:03:41.939Z,7.47
2023-02-12T08:06:10.324Z,8.20
2023-02-12T08:08:38.962Z,6.80
2023-02-12T08:11:07.893Z,7.60
2023-02-12T08:13:35.878Z,7.38
2023-02-12T08:16:05.460Z,6.68
2023-02-12T08:18:33.728Z,7.55
2023-02-12T08:21:03.060Z,6.50
2023-02-12T08:23:30.582Z,6.55
2023-02-12T08:26:05.633Z,6.70
2023-02-12T08:28:35.507Z,7.07
2023-02-12T08:31:03.386Z,6.03
2023-02-12T08:33:30.779Z,5.30
2023-02-12T08:36:09.563Z,5.17
2023-02-12T08:38:37.672Z,4.77
2023-02-12T08:41:06.773Z,5.30
2023-02-12T08:43:34.723Z,5.57
2023-02-12T08:46:02.992Z,5.37
2023-02-12T08:48:30.417Z,4.53
2023-02-12T08:50:57.767Z,4.80
2023-02-12T08:53:25.285Z,5.13
2023-02-12T08:55:52.956Z,5.13
2023-02-12T08:58:20.572Z,5.50
2023-02-12T09:00:47.950Z,6.10
2023-02-12T09:03:15.284Z,5.30
2023-02-12T09:05:42.928Z,5.60
2023-02-12T09:08:10.418Z,6.03
2023-02-12T09:10:41.710Z,6.10
2023-02-12T09:13:09.663Z,6.73
2023-02-12T09:15:38.291Z,6.17
2023-02-12T09:18:05.688Z,6.23
2023-02-12T09:20:33.622Z,6.77
2023-02-12T09:23:01.296Z,7.47
2023-02-12T09:25:28.699Z,6.77
2023-02-12T09:27:56.801Z,7.97
2023-02-12T09:30:24.211Z,8.00
2023-02-12T09:32:51.736Z,7.10
2023-02-12T09:35:19.307Z,8.40
2023-02-12T09:37:46.713Z,7.87
2023-02-12T09:40:33.992Z,8.90
2023-02-12T09:43:21.162Z,8.87
2023-02-12T09:46:08.432Z,8.10
2023-02-12T09:48:47.980Z,11.00
2023-02-12T09:51:15.605Z,9.47
2023-02-12T09:53:46.765Z,9.97
2023-02-12T09:56:14.927Z,9.57
2023-02-12T09:58:45.411Z,9.37
2023-02-12T10:01:14.463Z,11.47
2023-02-12T10:03:42.161Z,9.63
2023-02-12T10:06:12.855Z,9.77
2023-02-12T10:09:00.499Z,9.13
2023-02-12T10:11:40.420Z,9.27
2023-02-12T10:14:27.634Z,10.70
2023-02-12T10:17:14.863Z,10.87
2023-02-12T10:20:02.128Z,9.07
2023-02-12T10:22:56.886Z,10.70
2023-02-12T10:25:44.592Z,10.13
2023-02-12T10:28:14.535Z,11.20
2023-02-12T10:30:50.831Z,9.63
2023-02-12T10:33:20.692Z,9.83
2023-02-12T10:35:54.409Z,9.53
2023-02-12T10:38:23.201Z,9.53
2023-02-12T10:40:50.898Z,9.30
2023-02-12T10:43:18.364Z,9.30
2023-02-12T10:45:45.753Z,10.13
2023-02-12T10:48:32.944Z,10.37
2023-02-12T10:51:20.137Z,10.23
2023-02-12T10:53:48.481Z,8.87
2023-02-12T10:56:17.669Z,10.23
2023-02-12T10:59:01.163Z,9.93
2023-02-12T11:01:30.989Z,10.47
2023-02-12T11:03:59.175Z,11.63
2023-02-12T11:06:28.715Z,13.00
2023-02-12T11:08:56.526Z,10.53
2023-02-12T11:11:43.759Z,10.80
2023-02-12T11:14:20.417Z,9.97
2023-02-12T11:16:53.296Z,8.70
2023-02-12T11:19:23.561Z,6.60
2023-02-12T11:21:51.300Z,6.60
2023-02-12T11:24:35.474Z,8.47
2023-02-12T11:27:22.684Z,7.10
2023-02-12T11:30:04.845Z,7.33
2023-02-12T11:32:32.198Z,7.17
2023-02-12T11:35:12.244Z,6.33
2023-02-12T11:37:41.427Z,7.57
2023-02-12T11:40:15.073Z,6.73
2023-02-12T11:42:49.198Z,7.57
2023-02-12T11:45:18.565Z,7.50
2023-02-12T11:47:46.626Z,8.10
2023-02-12T11:50:33.820Z,8.03
2023-02-12T11:53:07.059Z,8.53
2023-02-12T11:55:36.300Z,8.77
2023-02-12T11:58:23.504Z,8.93
2023-02-12T12:00:52.961Z,8.63
2023-02-12T12:03:24.204Z,8.27
2023-02-12T12:05:52.800Z,9.20
2023-02-12T12:08:40.055Z,8.93
2023-02-12T12:11:25.500Z,9.33
2023-02-12T12:14:12.744Z,9.57
2023-02-12T12:17:19.814Z,8.83
2023-02-12T12:19:53.446Z,8.73
2023-02-12T12:22:40.761Z,8.93
2023-02-12T12:25:13.906Z,10.50
2023-02-12T12:28:05.772Z,10.77
2023-02-12T12:30:53.124Z,8.47
2023-02-12T12:33:39.099Z,9.60
2023-02-12T12:36:26.349Z,10.27
2023-02-12T12:39:13.618Z,9.40
2023-02-12T12:42:00.851Z,9.33
2023-02-12T12:44:48.775Z,9.40
2023-02-12T12:47:36.012Z,9.60
2023-02-12T12:50:23.390Z,9.57
2023-02-12T12:53:10.823Z,10.63
2023-02-12T12:55:45.309Z,10.57
2023-02-12T12:58:32.579Z,8.90
2023-02-12T13:01:14.360Z,9.10
2023-02-12T13:04:01.617Z,9.30
2023-02-12T13:06:34.363Z,9.40
2023-02-12T13:09:21.605Z,9.47
2023-02-12T13:12:08.917Z,9.20
2023-02-12T13:14:56.120Z,9.40
2023-02-12T13:17:27.635Z,9.57
2023-02-12T13:20:14.869Z,8.67
2023-02-12T13:23:02.179Z,9.40
2023-02-12T13:25:31.998Z,8.93
2023-02-12T13:28:01.180Z,8.67
2023-02-12T13:30:48.555Z,9.03
2023-02-12T13:33:22.618Z,10.33
2023-02-12T13:35:52.772Z,9.63
2023-02-12T13:38:25.326Z,10.20
2023-02-12T13:40:55.535Z,18.77
2023-02-12T13:43:42.738Z,11.13
2023-02-12T13:46:16.160Z,25.87
2023-02-12T13:49:03.418Z,15.27
2023-02-12T13:51:37.362Z,17.13
2023-02-12T13:54:24.562Z,10.53
2023-02-12T13:56:53.295Z,11.10
2023-02-12T13:59:40.578Z,13.27
2023-02-12T14:02:27.867Z,11.83
2023-02-12T14:04:59.999Z,11.17
2023-02-12T14:07:47.226Z,11.43
2023-02-12T14:10:32.153Z,11.77
2023-02-12T14:13:11.264Z,8.15
2023-02-12T14:15:40.476Z,9.67
2023-02-12T14:18:26.686Z,9.07
2023-02-12T14:21:14.022Z,9.07
2023-02-12T14:23:43.253Z,9.80
2023-02-12T14:26:31.001Z,9.10
2023-02-12T14:29:00.385Z,10.03
2023-02-12T14:31:47.693Z,9.97
2023-02-12T14:34:34.971Z,10.10
2023-02-12T14:37:18.548Z,9.93
2023-02-12T14:39:45.943Z,11.33
2023-02-12T14:42:22.234Z,9.60
2023-02-12T14:44:57.316Z,10.33
2023-02-12T14:47:44.599Z,9.50
2023-02-12T14:50:15.980Z,10.17
2023-02-12T14:52:45.268Z,10.37
2023-02-12T14:55:34.460Z,11.03
2023-02-12T14:58:04.148Z,18.57
2023-02-12T15:00:36.248Z,14.80
2023-02-12T15:03:22.357Z,18.00
2023-02-12T15:06:00.354Z,15.20
2023-02-12T15:08:47.622Z,21.60
2023-02-12T15:11:34.896Z,9.53
2023-02-12T15:14:22.316Z,11.17
2023-02-12T15:17:10.158Z,10.40
2023-02-12T15:19:58.173Z,8.20
2023-02-12T15:22:28.527Z,7.20
2023-02-12T15:25:15.037Z,7.13
2023-02-12T15:27:44.568Z,7.83
2023-02-12T15:30:26.409Z,7.00
2023-02-12T15:32:58.007Z,6.37
2023-02-12T15:35:27.553Z,6.60
2023-02-12T15:37:56.395Z,6.67
2023-02-12T15:40:24.257Z,6.60
2023-02-12T15:42:55.688Z,6.57
2023-02-12T15:45:25.066Z,5.60
2023-02-12T15:47:58.103Z,6.67
2023-02-12T15:50:25.589Z,6.67
2023-02-12T15:53:05.604Z,6.33
2023-02-12T15:55:35.859Z,5.60
2023-02-12T15:58:03.313Z,5.60
2023-02-12T16:00:36.290Z,5.27
2023-02-12T16:03:03.813Z,5.00
2023-02-12T16:05:32.610Z,5.20
2023-02-12T16:08:01.700Z,5.67
2023-02-12T16:10:29.315Z,6.03
2023-02-12T16:12:56.802Z,5.47
2023-02-12T16:15:26.780Z,5.47
2023-02-12T16:17:54.319Z,4.93
2023-02-12T16:20:25.752Z,5.47
2023-02-12T16:22:53.559Z,5.27
2023-02-12T16:25:23.626Z,5.30
2023-02-12T16:28:10.928Z,5.27
2023-02-12T16:30:42.353Z,5.13
2023-02-12T16:33:29.585Z,4.87
2023-02-12T16:36:05.320Z,5.47
2023-02-12T16:38:49.540Z,6.53
2023-02-12T16:41:41.119Z,6.40
2023-02-12T16:44:29.580Z,6.43
2023-02-12T16:47:00.718Z,6.53
2023-02-12T16:49:28.513Z,7.77
2023-02-12T16:52:15.821Z,7.20
2023-02-12T16:54:43.246Z,7.37
2023-02-12T16:57:12.574Z,6.27
2023-02-12T16:59:43.444Z,6.70
2023-02-12T17:02:13.539Z,7.00
2023-02-12T17:04:40.960Z,7.77
2023-02-12T17:07:24.876Z,8.03
2023-02-12T17:09:52.233Z,8.93
2023-02-12T17:12:19.671Z,9.17
2023-02-12T17:14:49.218Z,9.20
2023-02-12T17:17:16.898Z,9.27
2023-02-12T17:19:44.460Z,8.57
2023-02-12T17:22:20.407Z,8.37
2023-02-12T17:24:51.775Z,7.97
2023-02-12T17:27:19.533Z,8.67
2023-02-12T17:29:47.167Z,9.67
2023-02-12T17:32:16.375Z,8.80
2023-02-12T17:34:49.024Z,8.60
2023-02-12T17:37:17.163Z,8.47
2023-02-12T17:39:44.571Z,7.97
2023-02-12T17:42:12.289Z,7.40
2023-02-12T17:44:40.221Z,8.60
2023-02-12T17:47:07.630Z,7.63
2023-02-12T17:49:35.673Z,8.20
2023-02-12T17:52:05.743Z,9.03
2023-02-12T17:54:34.527Z,9.00
2023-02-12T17:57:01.889Z,8.97
2023-02-12T17:59:29.365Z,8.40
2023-02-12T18:01:57.093Z,8.57
2023-02-12T18:04:24.654Z,9.50
2023-02-12T18:06:52.165Z,8.90
2023-02-12T18:09:19.596Z,8.33
2023-02-12T18:11:47.057Z,8.30
2023-02-12T18:14:14.499Z,8.07
2023-02-12T18:16:42.109Z,7.47
2023-02-12T18:19:09.521Z,9.67
2023-02-12T18:21:37.153Z,13.40
2023-02-12T18:24:04.747Z,15.20
2023-02-12T18:26:32.157Z,22.93
2023-02-12T18:29:00.233Z,24.53
2023-02-12T18:31:28.509Z,11.20
2023-02-12T18:33:56.222Z,10.77
2023-02-12T18:36:23.970Z,10.13
2023-02-12T18:38:52.125Z,9.83
2023-02-12T18:41:21.721Z,8.93
2023-02-12T18:43:49.378Z,8.23
2023-02-12T18:46:18.252Z,8.33
2023-02-12T18:48:45.756Z,8.40
2023-02-12T18:51:15.371Z,8.47
2023-02-12T18:53:43.001Z,8.70
2023-02-12T18:56:11.321Z,7.93
2023-02-12T18:58:38.941Z,8.37
2023-02-12T19:01:15.547Z,7.17
2023-02-12T19:03:43.093Z,7.23
2023-02-12T19:06:10.714Z,8.10
2023-02-12T19:08:38.224Z,7.37
2023-02-12T19:11:07.917Z,8.53
2023-02-12T19:13:35.293Z,7.43
2023-02-12T19:16:11.201Z,7.50
2023-02-12T19:18:38.648Z,9.20
2023-02-12T19:21:07.830Z,8.10
2023-02-12T19:23:35.353Z,8.63
2023-02-12T19:26:03.993Z,8.40
2023-02-12T19:28:31.401Z,7.67
2023-02-12T19:31:00.355Z,7.93
2023-02-12T19:33:28.055Z,6.97
2023-02-12T19:35:55.446Z,7.43
2023-02-12T19:38:22.985Z,7.60
2023-02-12T19:40:50.480Z,7.10
2023-02-12T19:43:17.956Z,7.97
2023-02-12T19:45:45.375Z,7.23
2023-02-12T19:48:12.815Z,7.33
2023-02-12T19:50:45.842Z,7.63
2023-02-12T19:53:13.234Z,7.23
2023-02-12T19:55:40.729Z,7.50
2023-02-12T19:58:09.503Z,8.07
2023-02-12T20:00:36.901Z,7.93
2023-02-12T20:03:04.428Z,7.60
2023-02-12T20:05:32.323Z,7.10
2023-02-12T20:07:59.751Z,7.20
2023-02-12T20:10:27.126Z,7.43
2023-02-12T20:12:54.555Z,6.77
2023-02-12T20:15:25.544Z,7.40
2023-02-12T20:17:52.941Z,7.47
2023-02-12T20:20:20.696Z,7.37
2023-02-12T20:22:48.180Z,5.77
2023-02-12T20:25:15.660Z,6.67
2023-02-12T20:27:43.104Z,7.17
2023-02-12T20:30:10.810Z,6.87
2023-02-12T20:32:38.565Z,6.37
2023-02-12T20:35:06.217Z,6.00
2023-02-12T20:37:33.619Z,6.67
2023-02-12T20:40:00.988Z,7.93
2023-02-12T20:42:28.430Z,6.43
2023-02-12T20:44:55.811Z,7.33
2023-02-12T20:47:28.571Z,6.33
2023-02-12T20:49:56.550Z,6.83
2023-02-12T20:52:25.174Z,6.80
2023-02-12T20:54:52.510Z,5.77
2023-02-12T20:57:19.902Z,5.67
2023-02-12T20:59:49.169Z,6.50
2023-02-12T21:02:16.940Z,31.23
2023-02-12T21:04:44.296Z,6.03
2023-02-12T21:07:11.679Z,5.63
2023-02-12T21:09:39.093Z,5.77
2023-02-12T21:12:06.548Z,5.30
2023-02-12T21:14:33.947Z,5.77
2023-02-12T21:17:01.365Z,5.37
2023-02-12T21:19:28.928Z,6.10
2023-02-12T21:21:56.340Z,4.63
2023-02-12T21:24:25.180Z,5.57
2023-02-12T21:26:53.031Z,4.83
2023-02-12T21:29:20.929Z,5.40
2023-02-12T21:31:49.392Z,5.97
2023-02-12T21:34:19.688Z,4.90
2023-02-12T21:36:47.881Z,4.53
2023-02-12T21:39:24.336Z,4.00
2023-02-12T21:41:53.207Z,4.27
2023-02-12T21:44:21.098Z,3.97
2023-02-12T21:46:48.685Z,4.40
2023-02-12T21:49:24.812Z,4.27
2023-02-12T21:51:53.289Z,3.70
2023-02-12T21:54:21.125Z,4.87
2023-02-12T21:56:49.203Z,4.93
2023-02-12T21:59:17.153Z,4.33
2023-02-12T22:01:47.776Z,3.33
2023-02-12T22:04:15.298Z,3.33
2023-02-12T22:06:43.967Z,3.37
2023-02-12T22:09:12.394Z,2.80
2023-02-12T22:11:40.697Z,2.90
2023-02-12T22:14:08.556Z,3.00
2023-02-12T22:16:37.587Z,3.20
2023-02-12T22:19:05.479Z,2.70
2023-02-12T22:21:34.522Z,2.60
2023-02-12T22:24:03.072Z,2.63
2023-02-12T22:26:31.120Z,2.80
2023-02-12T22:28:59.901Z,3.20
2023-02-12T22:31:29.434Z,2.40
2023-02-12T22:33:58.210Z,2.50
2023-02-12T22:36:26.232Z,3.03
2023-02-12T22:38:54.261Z,2.57
2023-02-12T22:41:21.638Z,2.50
2023-02-12T22:43:49.309Z,2.80
2023-02-12T22:46:17.080Z,4.27
2023-02-12T22:48:44.832Z,2.60
2023-02-12T22:51:14.130Z,2.60
2023-02-12T22:53:41.569Z,3.43
2023-02-12T22:56:09.369Z,2.90
2023-02-12T22:58:38.224Z,3.20
2023-02-12T23:01:06.553Z,2.67
2023-02-12T23:03:34.280Z,2.60
2023-02-12T23:06:02.783Z,3.30
2023-02-12T23:08:30.165Z,2.80
2023-02-12T23:10:57.875Z,4.10
2023-02-12T23:13:29.820Z,3.00
2023-02-12T23:15:58.146Z,3.67
2023-02-12T23:18:25.768Z,3.00
2023-02-12T23:20:53.347Z,2.70
2023-02-12T23:23:21.462Z,2.67
2023-02-12T23:25:49.061Z,2.50
2023-02-12T23:28:16.687Z,2.73
2023-02-12T23:30:44.315Z,2.60
2023-02-12T23:33:11.785Z,2.40
2023-02-12T23:35:39.144Z,2.80
2023-02-12T23:38:06.543Z,3.10
2023-02-12T23:40:34.600Z,2.57
2023-02-12T23:43:02.064Z,2.50
2023-02-12T23:45:29.701Z,2.93
2023-02-12T23:47:57.506Z,2.70
2023-02-12T23:50:24.926Z,2.23
2023-02-12T23:52:52.358Z,2.93
2023-02-12T23:55:20.349Z,2.83
2023-02-12T23:57:49.806Z,2.73
